To NAV CANADA Home Page Login to a new session Search on AWWS site Feedback and Comments Disclaimer Vers la page française équivalente Tips FAQ What's new on the site To the Forecasts and Observations / NOTAM section To "File a Flight Plan" website Publications and other links Update of the User's profile FIC Telephone Numbers My Weather Data Folder Route Weather Data Regional Weather Data Local Weather Data To the Forecasts and Observations / NOTAM section
Request Generated 03/29/2015 at 23:43:10 UTC . Weather information available at that time is displayed.

METAR/TAF

KANGIQSUALUJJUAQ/KANGIQSUALUJJUAQ (GEORGES RIVER)/QC    

METAR CYLU 292100Z 00000KT 15SM FEW020 FEW150 M16/M21 A2959 RMK SC1AC1 LAST OBS/NEXT 301200Z SLP027=
METAR CYLU 292000Z 00000KT 15SM FEW011 FEW020 M15/M20 A2959 RMK SC1SC1 SLP028=

CYLU - No TAF is issued for this station

Your time UTC time
Weather data provided by Environment Canada and NAV CANADA